createdAt,value
2019-02-05T00:01:14.162Z,66.30
2019-02-05T00:03:41.656Z,66.17
2019-02-05T00:06:09.571Z,65.97
2019-02-05T00:08:38.057Z,66.16
2019-02-05T00:11:05.925Z,66.85
2019-02-05T00:13:33.902Z,66.77
2019-02-05T00:16:01.343Z,66.99
2019-02-05T00:18:29.035Z,66.73
2019-02-05T00:20:56.386Z,66.72
2019-02-05T00:23:24.278Z,67.34
2019-02-05T00:25:52.854Z,66.42
2019-02-05T00:28:20.218Z,66.81
2019-02-05T00:30:47.807Z,66.44
2019-02-05T00:33:15.610Z,67.50
2019-02-05T00:35:44.899Z,67.07
2019-02-05T00:38:12.533Z,66.04
2019-02-05T00:40:40.237Z,67.34
2019-02-05T00:43:07.862Z,66.82
2019-02-05T00:45:35.570Z,66.35
2019-02-05T00:48:04.534Z,66.59
2019-02-05T00:50:31.890Z,67.20
2019-02-05T00:52:59.540Z,66.85
2019-02-05T00:55:27.443Z,66.99
2019-02-05T00:57:55.098Z,67.24
2019-02-05T01:00:28.303Z,67.35
2019-02-05T01:02:56.358Z,67.62
2019-02-05T01:05:23.803Z,67.91
2019-02-05T01:07:52.043Z,68.12
2019-02-05T01:10:21.280Z,68.56
2019-02-05T01:12:48.752Z,69.64
2019-02-05T01:15:16.909Z,69.45
2019-02-05T01:17:44.771Z,69.93
2019-02-05T01:20:15.280Z,70.23
2019-02-05T01:22:43.059Z,69.66
2019-02-05T01:25:10.652Z,70.57
2019-02-05T01:27:38.654Z,70.78
2019-02-05T01:30:09.550Z,70.96
2019-02-05T01:32:36.956Z,70.99
2019-02-05T01:35:05.001Z,71.02
2019-02-05T01:37:32.625Z,71.68
2019-02-05T01:40:00.735Z,71.81
2019-02-05T01:42:28.465Z,71.98
2019-02-05T01:44:56.851Z,71.79
2019-02-05T01:47:24.473Z,71.80
2019-02-05T01:49:51.707Z,71.71
2019-02-05T01:52:19.802Z,71.64
2019-02-05T01:54:47.427Z,71.78
2019-02-05T01:57:15.207Z,71.38
2019-02-05T01:59:42.736Z,71.33
2019-02-05T02:02:11.080Z,71.48
2019-02-05T02:04:38.865Z,71.22
2019-02-05T02:07:06.313Z,71.13
2019-02-05T02:09:33.866Z,71.38
2019-02-05T02:12:01.847Z,71.11
2019-02-05T02:14:29.447Z,70.98
2019-02-05T02:16:57.411Z,70.84
2019-02-05T02:19:26.323Z,70.96
2019-02-05T02:21:53.877Z,71.06
2019-02-05T02:24:21.261Z,71.02
2019-02-05T02:26:52.087Z,71.27
2019-02-05T02:29:18.407Z,71.91
2019-02-05T02:31:46.118Z,71.52
2019-02-05T02:34:13.634Z,72.55
2019-02-05T02:36:41.161Z,72.66
2019-02-05T02:39:08.563Z,72.71
2019-02-05T02:41:35.817Z,72.59
2019-02-05T02:44:03.709Z,72.42
2019-02-05T02:46:31.559Z,72.86
2019-02-05T02:48:59.696Z,73.23
2019-02-05T02:51:27.101Z,72.95
2019-02-05T02:53:54.880Z,74.22
2019-02-05T02:56:22.556Z,74.25
2019-02-05T02:58:50.038Z,73.98
2019-02-05T03:01:17.617Z,75.64
2019-02-05T03:03:45.355Z,76.44
2019-02-05T03:06:13.373Z,75.02
2019-02-05T03:08:41.547Z,74.48
2019-02-05T03:11:09.025Z,75.43
2019-02-05T03:13:37.402Z,75.57
2019-02-05T03:16:04.956Z,75.68
2019-02-05T03:18:32.695Z,75.36
2019-02-05T03:21:01.848Z,75.24
2019-02-05T03:23:29.067Z,75.64
2019-02-05T03:25:56.293Z,75.43
2019-02-05T03:28:23.803Z,75.63
2019-02-05T03:30:51.344Z,76.05
2019-02-05T03:33:21.199Z,75.64
2019-02-05T03:35:48.460Z,74.85
2019-02-05T03:38:16.602Z,74.48
2019-02-05T03:41:05.107Z,73.94
2019-02-05T03:43:34.613Z,74.61
2019-02-05T03:46:08.065Z,74.64
2019-02-05T03:48:36.205Z,74.12
2019-02-05T03:52:25.682Z,74.68
2019-02-05T03:55:35.878Z,74.58
2019-02-05T03:59:11.345Z,75.04
2019-02-05T04:02:25.447Z,74.31
2019-02-05T04:05:52.310Z,74.15
2019-02-05T04:09:20.698Z,74.61
2019-02-05T04:12:27.875Z,74.62
2019-02-05T04:15:39.785Z,75.01
2019-02-05T04:19:05.276Z,74.92
2019-02-05T04:22:31.768Z,75.62
2019-02-05T04:25:46.634Z,75.10
2019-02-05T04:29:11.702Z,75.15
2019-02-05T04:32:23.615Z,75.21
2019-02-05T04:35:20.119Z,75.20
2019-02-05T04:38:36.798Z,75.26
2019-02-05T04:41:49.351Z,75.42
2019-02-05T04:45:34.120Z,75.50
2019-02-05T04:48:48.877Z,75.95
2019-02-05T04:51:48.642Z,75.89
2019-02-05T04:55:19.178Z,76.40
2019-02-05T04:58:48.458Z,76.48
2019-02-05T05:02:16.673Z,76.29
2019-02-05T05:05:34.185Z,76.01
2019-02-05T05:08:29.388Z,75.77
2019-02-05T05:10:58.325Z,75.51
2019-02-05T05:13:26.200Z,75.55
2019-02-05T05:15:54.901Z,75.73
2019-02-05T05:18:22.024Z,75.02
2019-02-05T05:20:49.773Z,74.98
2019-02-05T05:23:18.180Z,74.79
2019-02-05T05:25:46.322Z,74.53
2019-02-05T05:28:14.030Z,74.69
2019-02-05T05:30:42.069Z,74.27
2019-02-05T05:33:12.792Z,74.72
2019-02-05T05:35:44.327Z,74.29
2019-02-05T05:38:09.835Z,74.42
2019-02-05T05:40:38.054Z,74.34
2019-02-05T05:43:05.931Z,73.91
2019-02-05T05:45:33.297Z,74.13
2019-02-05T05:48:00.679Z,74.05
2019-02-05T05:50:29.243Z,73.82
2019-02-05T05:52:57.377Z,73.84
2019-02-05T05:55:24.917Z,73.78
2019-02-05T05:57:52.672Z,73.67
2019-02-05T06:00:20.092Z,73.75
2019-02-05T06:02:47.614Z,73.39
2019-02-05T06:05:18.108Z,73.44
2019-02-05T06:07:45.863Z,73.54
2019-02-05T06:10:14.736Z,73.18
2019-02-05T06:12:42.295Z,73.07
2019-02-05T06:15:10.558Z,73.09
2019-02-05T06:17:38.366Z,73.29
2019-02-05T06:20:10.204Z,73.28
2019-02-05T06:22:38.122Z,73.20
2019-02-05T06:25:05.825Z,73.36
2019-02-05T06:27:33.989Z,73.58
2019-02-05T06:30:01.544Z,73.39
2019-02-05T06:32:29.288Z,73.29
2019-02-05T06:34:57.213Z,73.20
2019-02-05T06:37:24.694Z,73.24
2019-02-05T06:39:52.559Z,73.06
2019-02-05T06:42:20.248Z,72.96
2019-02-05T06:44:48.625Z,72.94
2019-02-05T06:47:16.893Z,72.83
2019-02-05T06:49:44.185Z,72.93
2019-02-05T06:52:11.863Z,72.88
2019-02-05T06:54:39.118Z,72.96
2019-02-05T06:57:06.541Z,72.77
2019-02-05T06:59:34.305Z,72.64
2019-02-05T07:02:01.974Z,72.73
2019-02-05T07:04:29.803Z,72.54
2019-02-05T07:06:57.389Z,72.54
2019-02-05T07:09:28.867Z,72.55
2019-02-05T07:11:56.298Z,72.44
2019-02-05T07:14:23.650Z,72.44
2019-02-05T07:16:51.548Z,72.30
2019-02-05T07:19:18.815Z,72.08
2019-02-05T07:21:46.992Z,72.61
2019-02-05T07:24:15.361Z,72.38
2019-02-05T07:26:43.096Z,72.11
2019-02-05T07:29:10.459Z,71.90
2019-02-05T07:31:38.126Z,71.77
2019-02-05T07:34:06.134Z,72.15
2019-02-05T07:36:34.152Z,72.53
2019-02-05T07:39:01.697Z,72.62
2019-02-05T07:41:29.956Z,72.38
2019-02-05T07:43:57.572Z,72.31
2019-02-05T07:46:24.900Z,72.60
2019-02-05T07:48:52.362Z,72.38
2019-02-05T07:51:20.330Z,72.75
2019-02-05T07:53:47.771Z,71.80
2019-02-05T07:56:15.444Z,72.55
2019-02-05T07:58:42.818Z,71.90
2019-02-05T08:01:10.838Z,71.89
2019-02-05T08:03:38.455Z,71.94
2019-02-05T08:06:06.904Z,72.19
2019-02-05T08:08:35.620Z,72.72
2019-02-05T08:11:04.817Z,73.05
2019-02-05T08:13:32.638Z,72.12
2019-02-05T08:16:00.026Z,71.89
2019-02-05T08:18:28.763Z,71.14
2019-02-05T08:20:58.554Z,71.51
2019-02-05T08:23:26.891Z,72.46
2019-02-05T08:25:54.525Z,70.95
2019-02-05T08:28:22.195Z,71.27
2019-02-05T08:30:50.482Z,70.91
2019-02-05T08:33:18.053Z,70.92
2019-02-05T08:35:45.613Z,70.83
2019-02-05T08:38:13.830Z,70.69
2019-02-05T08:40:41.588Z,70.87
2019-02-05T08:43:09.084Z,70.30
2019-02-05T08:45:38.175Z,70.41
2019-02-05T08:48:06.999Z,70.47
2019-02-05T08:50:35.299Z,69.63
2019-02-05T08:53:03.163Z,69.78
2019-02-05T08:55:31.214Z,69.83
2019-02-05T08:58:02.245Z,69.32
2019-02-05T09:00:32.854Z,69.04
2019-02-05T09:03:01.447Z,69.31
2019-02-05T09:05:29.559Z,69.15
2019-02-05T09:07:57.412Z,69.14
2019-02-05T09:10:28.442Z,69.51
2019-02-05T09:12:56.235Z,68.98
2019-02-05T09:15:29.427Z,69.75
2019-02-05T09:17:54.077Z,68.57
2019-02-05T09:20:23.222Z,69.45
2019-02-05T09:22:53.070Z,69.10
2019-02-05T09:25:20.699Z,68.96
2019-02-05T09:27:48.153Z,68.80
2019-02-05T09:30:28.585Z,68.94
2019-02-05T09:32:58.938Z,68.60
2019-02-05T09:35:26.881Z,68.29
2019-02-05T09:37:57.836Z,67.89
2019-02-05T09:40:29.766Z,67.44
2019-02-05T09:42:58.167Z,66.84
2019-02-05T09:45:27.869Z,66.71
2019-02-05T09:47:55.590Z,66.81
2019-02-05T09:50:23.997Z,66.36
2019-02-05T09:52:51.640Z,66.68
2019-02-05T09:55:19.583Z,66.61
2019-02-05T09:57:47.807Z,68.34
2019-02-05T10:00:24.945Z,67.77
2019-02-05T10:02:53.126Z,67.04
2019-02-05T10:05:22.167Z,65.97
2019-02-05T10:07:49.812Z,65.78
2019-02-05T10:10:18.227Z,64.88
2019-02-05T10:12:47.048Z,64.94
2019-02-05T10:15:24.900Z,64.67
2019-02-05T10:17:52.362Z,65.07
2019-02-05T10:20:21.232Z,63.83
2019-02-05T10:22:49.460Z,64.41
2019-02-05T10:25:17.205Z,64.99
2019-02-05T10:27:45.470Z,65.30
2019-02-05T10:30:23.055Z,64.21
2019-02-05T10:32:51.022Z,62.58
2019-02-05T10:35:19.854Z,64.35
2019-02-05T10:37:47.655Z,64.71
2019-02-05T10:40:15.465Z,63.66
2019-02-05T10:42:44.233Z,64.35
2019-02-05T10:45:13.251Z,63.99
2019-02-05T10:47:41.128Z,62.84
2019-02-05T10:50:11.466Z,61.61
2019-02-05T10:52:39.544Z,62.05
2019-02-05T10:55:09.812Z,60.31
2019-02-05T10:57:38.000Z,59.99
2019-02-05T11:00:11.058Z,60.42
2019-02-05T11:02:38.527Z,58.35
2019-02-05T11:05:07.662Z,60.42
2019-02-05T11:07:36.782Z,60.58
2019-02-05T11:10:08.062Z,59.30
2019-02-05T11:12:35.605Z,59.43
2019-02-05T11:15:06.026Z,58.81
2019-02-05T11:17:34.213Z,59.45
2019-02-05T11:20:01.721Z,60.96
2019-02-05T11:22:29.595Z,58.34
2019-02-05T11:24:57.599Z,59.01
2019-02-05T11:27:25.874Z,59.67
2019-02-05T11:29:53.210Z,60.31
2019-02-05T11:32:20.701Z,59.62
2019-02-05T11:34:48.618Z,58.61
2019-02-05T11:37:16.911Z,58.02
2019-02-05T11:39:44.719Z,57.95
2019-02-05T11:42:12.656Z,57.32
2019-02-05T11:44:40.115Z,56.37
2019-02-05T11:47:08.717Z,57.98
2019-02-05T11:49:36.149Z,56.95
2019-02-05T11:52:06.047Z,56.17
2019-02-05T11:54:33.420Z,58.25
2019-02-05T11:57:00.958Z,56.19
2019-02-05T11:59:28.283Z,57.30
2019-02-05T12:01:56.228Z,57.69
2019-02-05T12:04:24.209Z,57.24
2019-02-05T12:06:51.702Z,59.25
2019-02-05T12:09:23.182Z,59.28
2019-02-05T12:11:50.851Z,55.95
2019-02-05T12:14:18.685Z,61.21
2019-02-05T12:16:46.425Z,57.90
2019-02-05T12:19:13.899Z,55.29
2019-02-05T12:21:41.287Z,57.76
2019-02-05T12:24:09.536Z,60.31
2019-02-05T12:26:37.178Z,57.00
2019-02-05T12:29:04.961Z,57.19
2019-02-05T12:31:32.593Z,60.79
2019-02-05T12:33:59.922Z,57.64
2019-02-05T12:36:27.812Z,56.74
2019-02-05T12:38:55.705Z,54.09
2019-02-05T12:41:23.514Z,58.60
2019-02-05T12:43:51.414Z,59.09
2019-02-05T12:46:19.458Z,56.80
2019-02-05T12:48:47.045Z,56.85
2019-02-05T12:51:15.095Z,58.34
2019-02-05T12:53:42.501Z,58.71
2019-02-05T12:56:11.474Z,57.49
2019-02-05T12:58:39.339Z,58.31
2019-02-05T13:01:07.560Z,55.27
2019-02-05T13:03:35.389Z,58.79
2019-02-05T13:06:05.214Z,57.79
2019-02-05T13:08:33.180Z,57.31
2019-02-05T13:11:01.113Z,56.84
2019-02-05T13:13:30.086Z,57.36
2019-02-05T13:15:57.682Z,58.29
2019-02-05T13:18:25.377Z,58.20
2019-02-05T13:20:53.142Z,57.79
2019-02-05T13:23:20.897Z,55.83
2019-02-05T13:25:48.678Z,55.05
2019-02-05T13:28:16.749Z,56.30
2019-02-05T13:30:44.587Z,55.01
2019-02-05T13:33:14.580Z,55.46
2019-02-05T13:35:42.821Z,56.26
2019-02-05T13:38:10.338Z,54.95
2019-02-05T13:40:38.140Z,56.73
2019-02-05T13:43:06.092Z,55.63
2019-02-05T13:45:34.754Z,55.47
2019-02-05T13:48:04.644Z,53.98
2019-02-05T13:50:33.772Z,56.87
2019-02-05T13:53:02.233Z,56.61
2019-02-05T13:55:39.795Z,54.73
2019-02-05T13:58:07.852Z,54.75
2019-02-05T14:00:44.912Z,55.68
2019-02-05T14:03:12.829Z,56.13
2019-02-05T14:05:41.155Z,58.15
2019-02-05T14:08:09.543Z,54.19
2019-02-05T14:10:38.001Z,55.21
2019-02-05T14:13:06.439Z,55.40
2019-02-05T14:15:36.426Z,54.05
2019-02-05T14:18:06.012Z,55.92
2019-02-05T14:20:37.012Z,56.29
2019-02-05T14:23:04.913Z,57.65
2019-02-05T14:25:32.870Z,55.73
2019-02-05T14:28:01.350Z,58.78
2019-02-05T14:30:54.063Z,57.40
2019-02-05T14:33:23.154Z,56.83
2019-02-05T14:35:50.867Z,53.39
2019-02-05T14:38:18.606Z,56.24
2019-02-05T14:40:46.833Z,56.30
2019-02-05T14:43:14.488Z,58.00
2019-02-05T14:45:42.409Z,57.44
2019-02-05T14:48:10.476Z,57.20
2019-02-05T14:50:39.063Z,55.30
2019-02-05T14:53:08.270Z,56.23
2019-02-05T14:55:38.942Z,55.80
2019-02-05T14:58:09.251Z,55.07
2019-02-05T15:00:37.873Z,56.07
2019-02-05T15:03:10.772Z,56.56
2019-02-05T15:05:39.328Z,56.07
2019-02-05T15:08:07.967Z,58.34
2019-02-05T15:10:35.444Z,57.96
2019-02-05T15:13:04.660Z,57.01
2019-02-05T15:15:33.026Z,56.81
2019-02-05T15:18:00.936Z,59.16
2019-02-05T15:20:34.810Z,61.21
2019-02-05T15:23:04.350Z,58.81
2019-02-05T15:25:32.058Z,57.74
2019-02-05T15:28:00.118Z,57.16
2019-02-05T15:30:32.013Z,57.98
2019-02-05T15:33:17.222Z,57.38
2019-02-05T15:35:49.567Z,58.53
2019-02-05T15:38:17.026Z,58.38
2019-02-05T15:40:44.776Z,59.42
2019-02-05T15:43:12.219Z,59.26
2019-02-05T15:45:42.280Z,58.06
2019-02-05T15:48:10.014Z,58.88
2019-02-05T15:50:38.027Z,59.05
2019-02-05T15:53:06.066Z,57.89
2019-02-05T15:55:33.590Z,57.67
2019-02-05T15:58:02.116Z,59.13
2019-02-05T16:00:30.647Z,59.57
2019-02-05T16:02:58.490Z,58.98
2019-02-05T16:05:26.096Z,59.22
2019-02-05T16:07:53.498Z,59.25
2019-02-05T16:10:20.928Z,58.16
2019-02-05T16:12:48.307Z,58.70
2019-02-05T16:15:16.539Z,57.86
2019-02-05T16:17:43.990Z,58.39
2019-02-05T16:20:12.215Z,57.96
2019-02-05T16:22:40.266Z,58.52
2019-02-05T16:25:10.406Z,59.30
2019-02-05T16:27:38.098Z,59.39
2019-02-05T16:30:17.766Z,59.60
2019-02-05T16:32:46.166Z,59.51
2019-02-05T16:35:14.165Z,60.32
2019-02-05T16:37:41.879Z,60.23
2019-02-05T16:40:14.504Z,59.81
2019-02-05T16:42:42.677Z,60.29
2019-02-05T16:45:14.091Z,60.08
2019-02-05T16:47:41.842Z,60.89
2019-02-05T16:50:17.076Z,60.89
2019-02-05T16:52:45.068Z,60.43
2019-02-05T16:55:12.503Z,62.30
2019-02-05T16:57:39.959Z,60.51
2019-02-05T17:00:31.095Z,60.95
2019-02-05T17:02:59.111Z,61.27
2019-02-05T17:05:29.338Z,61.22
2019-02-05T17:07:57.179Z,61.31
2019-02-05T17:10:26.604Z,61.89
2019-02-05T17:12:54.309Z,61.34
2019-02-05T17:15:21.709Z,61.63
2019-02-05T17:17:49.414Z,61.99
2019-02-05T17:20:21.406Z,62.05
2019-02-05T17:22:49.690Z,61.87
2019-02-05T17:25:18.704Z,62.23
2019-02-05T17:27:46.465Z,62.37
2019-02-05T17:30:20.812Z,62.34
2019-02-05T17:32:48.521Z,62.07
2019-02-05T17:35:16.396Z,62.46
2019-02-05T17:37:44.531Z,62.81
2019-02-05T17:40:17.223Z,62.11
2019-02-05T17:42:45.708Z,62.71
2019-02-05T17:45:20.194Z,62.78
2019-02-05T17:47:48.413Z,62.79
2019-02-05T17:50:16.361Z,62.95
2019-02-05T17:52:43.954Z,62.98
2019-02-05T17:55:12.084Z,63.27
2019-02-05T17:57:39.426Z,63.36
2019-02-05T18:00:16.397Z,63.51
2019-02-05T18:02:51.383Z,63.10
2019-02-05T18:05:14.879Z,63.67
2019-02-05T18:07:42.915Z,63.61
2019-02-05T18:10:13.375Z,63.47
2019-02-05T18:12:41.318Z,64.07
2019-02-05T18:15:15.124Z,63.79
2019-02-05T18:17:42.497Z,63.75
2019-02-05T18:20:10.014Z,63.74
2019-02-05T18:22:37.725Z,63.65
2019-02-05T18:25:07.148Z,64.08
2019-02-05T18:27:35.773Z,63.44
2019-02-05T18:30:09.126Z,63.67
2019-02-05T18:32:37.536Z,63.79
2019-02-05T18:35:06.836Z,63.75
2019-02-05T18:37:34.565Z,63.74
2019-02-05T18:40:04.621Z,64.12
2019-02-05T18:42:32.283Z,63.55
2019-02-05T18:44:59.762Z,63.91
2019-02-05T18:47:27.693Z,64.06
2019-02-05T18:49:55.312Z,63.79
2019-02-05T18:52:23.667Z,64.10
2019-02-05T18:54:51.446Z,63.58
2019-02-05T18:57:25.458Z,64.23
2019-02-05T18:59:53.317Z,64.37
2019-02-05T19:02:20.691Z,64.16
2019-02-05T19:04:48.293Z,64.15
2019-02-05T19:07:15.706Z,64.29
2019-02-05T19:09:43.009Z,64.60
2019-02-05T19:12:10.511Z,64.71
2019-02-05T19:14:38.834Z,64.63
2019-02-05T19:17:06.518Z,64.44
2019-02-05T19:19:34.581Z,64.59
2019-02-05T19:22:02.393Z,64.40
2019-02-05T19:24:38.513Z,64.80
2019-02-05T19:27:05.897Z,64.64
2019-02-05T19:29:34.711Z,64.71
2019-02-05T19:32:02.740Z,65.16
2019-02-05T19:34:30.618Z,64.89
2019-02-05T19:36:58.344Z,65.03
2019-02-05T19:39:26.349Z,65.32
2019-02-05T19:41:54.228Z,64.99
2019-02-05T19:44:21.661Z,65.38
2019-02-05T19:46:53.566Z,65.23
2019-02-05T19:49:42.674Z,65.41
2019-02-05T19:52:10.197Z,65.54
2019-02-05T19:54:37.846Z,65.37
2019-02-05T19:57:05.943Z,65.53
2019-02-05T19:59:33.577Z,65.33
2019-02-05T20:02:01.909Z,65.29
2019-02-05T20:04:29.863Z,65.63
2019-02-05T20:06:57.288Z,65.43
2019-02-05T20:09:25.026Z,66.03
2019-02-05T20:11:53.171Z,65.64
2019-02-05T20:14:20.642Z,65.87
2019-02-05T20:16:48.432Z,66.24
2019-02-05T20:19:15.811Z,65.83
2019-02-05T20:21:43.951Z,65.80
2019-02-05T20:24:11.377Z,65.84
2019-02-05T20:26:38.851Z,65.99
2019-02-05T20:29:06.553Z,66.13
2019-02-05T20:31:33.719Z,66.31
2019-02-05T20:34:01.598Z,66.31
2019-02-05T20:36:29.238Z,66.42
2019-02-05T20:38:57.405Z,67.01
2019-02-05T20:41:25.046Z,66.77
2019-02-05T20:43:52.534Z,66.86
2019-02-05T20:46:20.419Z,66.77
2019-02-05T20:48:48.329Z,67.49
2019-02-05T20:51:16.272Z,67.18
2019-02-05T20:53:44.370Z,66.81
2019-02-05T20:56:14.730Z,67.38
2019-02-05T20:58:42.886Z,67.90
2019-02-05T21:01:11.138Z,68.02
2019-02-05T21:03:39.207Z,68.16
2019-02-05T21:06:07.080Z,68.28
2019-02-05T21:08:35.070Z,68.74
2019-02-05T21:11:02.475Z,68.70
2019-02-05T21:13:31.306Z,68.85
2019-02-05T21:15:58.918Z,69.85
2019-02-05T21:18:26.982Z,68.61
2019-02-05T21:20:55.130Z,69.16
2019-02-05T21:23:22.362Z,68.78
2019-02-05T21:25:49.518Z,69.63
2019-02-05T21:28:17.120Z,70.00
2019-02-05T21:30:45.019Z,70.33
2019-02-05T21:33:12.734Z,70.58
2019-02-05T21:35:40.513Z,70.16
2019-02-05T21:38:08.287Z,69.85
2019-02-05T21:40:35.645Z,70.73
2019-02-05T21:43:03.399Z,70.51
2019-02-05T21:45:31.579Z,70.80
2019-02-05T21:47:59.076Z,70.38
2019-02-05T21:50:26.995Z,70.80
2019-02-05T21:52:54.644Z,70.59
2019-02-05T21:55:22.316Z,70.83
2019-02-05T21:57:49.937Z,70.31
2019-02-05T22:00:26.915Z,70.51
2019-02-05T22:02:54.986Z,70.62
2019-02-05T22:05:22.996Z,70.73
2019-02-05T22:07:50.734Z,71.06
2019-02-05T22:10:18.995Z,70.77
2019-02-05T22:12:46.640Z,71.09
2019-02-05T22:15:14.815Z,71.12
2019-02-05T22:17:42.644Z,70.99
2019-02-05T22:20:16.212Z,71.26
2019-02-05T22:22:44.621Z,70.69
2019-02-05T22:25:21.685Z,70.34
2019-02-05T22:27:49.398Z,71.20
2019-02-05T22:30:31.028Z,71.69
2019-02-05T22:32:58.651Z,71.73
2019-02-05T22:35:26.460Z,71.85
2019-02-05T22:37:54.703Z,71.47
2019-02-05T22:40:23.850Z,72.12
2019-02-05T22:42:51.812Z,72.35
2019-02-05T22:45:20.234Z,72.53
2019-02-05T22:47:48.366Z,72.18
2019-02-05T22:50:19.334Z,72.41
2019-02-05T22:52:47.138Z,72.64
2019-02-05T22:55:15.085Z,73.12
2019-02-05T22:57:43.119Z,73.42
2019-02-05T23:00:49.799Z,73.84
2019-02-05T23:03:31.925Z,73.91
2019-02-05T23:06:57.822Z,74.58
2019-02-05T23:09:44.004Z,75.41
2019-02-05T23:12:40.447Z,75.37
2019-02-05T23:15:18.438Z,75.60
2019-02-05T23:17:46.552Z,75.22
2019-02-05T23:20:24.975Z,76.05
2019-02-05T23:22:52.857Z,75.54
2019-02-05T23:25:20.279Z,74.90
2019-02-05T23:27:48.243Z,73.87
2019-02-05T23:30:24.855Z,76.17
2019-02-05T23:32:52.293Z,74.66
2019-02-05T23:35:20.362Z,76.14
2019-02-05T23:37:48.487Z,77.36
2019-02-05T23:40:15.962Z,75.29
2019-02-05T23:42:43.676Z,77.50
2019-02-05T23:45:11.839Z,75.59
2019-02-05T23:47:39.199Z,75.56
2019-02-05T23:50:10.006Z,74.85
2019-02-05T23:52:37.623Z,74.71
2019-02-05T23:55:07.893Z,74.63
2019-02-05T23:57:35.723Z,74.33
